• Join FlightAware (Why Join?)
  • Login
  • US Flag 
06:49AM EDT


 

Airport Tracker/Info


-or-


 

Live Flight TrackerFlight Track Log ✈ N973TW ✈ 01-May-2012 ✈ KDFW - CYYC

Flight Track Log - Related Links

Times and Time Zones

All times are in EDT time to prevent confusion due to time zone crossing. See the N973TW flight status page for this flight to view local times or setup timezone preferences in your user account.

Time Position Orientation Groundspeed Altitude Reporting Facility
EDT Latitude Longitude Course Direction KTS MPH feet Rate Location/Type
11:54AM 32.8695 -97.0264 265° West  Level FlightAware Approximate
11:54AM 32.8678 -97.0514 193° South 157 181 2,100  Level FAA TRACON SMA TRACON (SMA)
11:55AM 32.8322 -97.0608 198° South 199 229 3,100 1,980 Climbing FAA TRACON SMA TRACON (SMA)
11:56AM 32.7961 -97.0747 226° Southwest 223 257 4,800 2,760 Climbing FAA TRACON SMA TRACON (SMA)
11:56AM 32.7658 -97.1114 300° West 250 288 6,800 2,760 Climbing FAA TRACON SMA TRACON (SMA)
11:57AM 32.7919 -97.1650 317° Northwest 293 337 8,500 2,640 Climbing FAA TRACON SMA TRACON (SMA)
11:58AM 32.8300 -97.2067 340° North 308 354 10,300 2,100 Climbing FAA TRACON SMA TRACON (SMA)
11:58AM 32.8878 -97.2314 357° North 338 389 11,300 1,380 Climbing FAA TRACON SMA TRACON (SMA)
11:59AM 32.9503 -97.2347 359° North 368 423 12,200 1,920 Climbing FAA TRACON SMA TRACON (SMA)
12:00PM 33.0272 -97.2369 358° North 396 456 13,900 2,580 Climbing FAA TRACON SMA TRACON (SMA)
12:00PM 33.0956 -97.2400 358° North 399 459 15,600 2,460 Climbing FAA TRACON SMA TRACON (SMA)
12:01PM 33.1728 -97.2431 358° North 400 460 17,200 2,220 Climbing FAA TRACON SMA TRACON (SMA)
12:02PM 33.2519 -97.2467 358° North 412 474 18,600 1,980 Climbing FAA TRACON SMA TRACON (SMA)
12:02PM 33.3239 -97.2500 358° North 419 482 19,900 1,980 Climbing FAA TRACON SMA TRACON (SMA)
12:03PM 33.4050 -97.2533 360° North 419 482 21,300 1,860 Climbing FAA TRACON SMA TRACON (SMA)
12:04PM 33.4775 -97.2531 North 424 488 22,400 1,560 Climbing FAA TRACON SMA TRACON (SMA)
12:04PM 33.5617 -97.2439 North 436 502 23,400 1,560 Climbing FAA TRACON SMA TRACON (SMA)
12:05PM 33.6467 -97.2350 North 443 510 24,500 1,260 Climbing FAA TRACON SMA TRACON (SMA)
12:06PM 33.7333 -97.2272 North 450 518 25,200 1,140 Climbing FAA TRACON SMA TRACON (SMA)
12:06PM 33.8122 -97.2164 North 462 532 26,100 1,500 Climbing FAA TRACON SMA TRACON (SMA)
12:07PM 33.8811 -97.2083 North 451 519 26,900 1,380 Climbing Fort Worth Center
12:08PM 34.0103 -97.1931 North 465 535 28,200 1,380 Climbing Fort Worth Center
12:09PM 34.1208 -97.1803 345° North 465 535 29,700 1,500 Climbing Fort Worth Center
12:10PM 34.2378 -97.2175 311° West 433 498 31,200 1,200 Climbing Fort Worth Center
12:11PM 34.3194 -97.3331 308° West 388 447 32,200 900 Climbing Fort Worth Center
12:12PM 34.3903 -97.4436 309° West 397 457 33,100 900 Climbing Fort Worth Center
12:13PM 34.4633 -97.5519 309° West 405 466 34,000 420 Climbing Fort Worth Center
12:14PM 34.5342 -97.6581 310° West 411 473 34,000  Level Fort Worth Center
12:15PM 34.6069 -97.7642 308° West 406 467 34,000  Level Fort Worth Center
12:16PM 34.6775 -97.8731 308° West 411 473 34,000  Level Fort Worth Center
12:17PM 34.7417 -97.9719 309° West 411 473 34,000  Level Fort Worth Center
12:18PM 34.8142 -98.0811 310° West 416 479 34,000  Level Fort Worth Center
12:19PM 34.8886 -98.1906 309° West 416 479 34,000  Level Fort Worth Center
12:20PM 34.9631 -98.3028 309° West 416 479 34,000  Level Fort Worth Center
12:21PM 35.0372 -98.4153 311° West 416 479 34,000  Level Fort Worth Center
12:22PM 35.1197 -98.5328 308° West 422 486 34,000  Level Fort Worth Center
12:23PM 35.1936 -98.6483 308° West 422 486 34,000  Level Fort Worth Center
12:24PM 35.2656 -98.7611 309° West 427 491 34,000  Level Fort Worth Center
12:25PM 35.3392 -98.8744 308° West 427 491 34,000  Level Fort Worth Center
12:26PM 35.4108 -98.9878 309° West 427 491 34,000  Level Fort Worth Center
12:27PM 35.4703 -99.0781 308° West 427 491 34,000  Level Fort Worth Center
12:29PM 35.6469 -99.3547 308° West 426 490 34,000  Level Kansas City Center
12:30PM 35.7117 -99.4558 317° Northwest 431 496 34,000  Level Kansas City Center
12:31PM 35.7950 -99.5533 317° Northwest 420 483 34,000  Level Kansas City Center
12:32PM 35.8806 -99.6511 319° Northwest 420 483 34,000  Level Kansas City Center
12:33PM 35.9703 -99.7469 317° Northwest 420 483 34,000  Level Kansas City Center
12:34PM 36.0558 -99.8450 318° Northwest 420 483 34,000  Level Kansas City Center
12:35PM 36.1433 -99.9411 318° Northwest 425 489 34,000  Level Kansas City Center
12:36PM 36.2286 -100.0372 318° Northwest 425 489 34,000  Level Kansas City Center
12:37PM 36.3178 -100.1364 317° Northwest 425 489 34,000  Level Kansas City Center
12:38PM 36.4008 -100.2325 317° Northwest 425 489 34,000  Level Kansas City Center
12:39PM 36.4858 -100.3319 319° Northwest 425 489 34,000  Level Kansas City Center
12:40PM 36.5828 -100.4375 317° Northwest 425 489 34,000  Level Kansas City Center
12:41PM 36.6675 -100.5372 318° Northwest 425 489 34,000  Level Kansas City Center
12:42PM 36.7483 -100.6292 317° Northwest 430 495 34,000  Level Kansas City Center
12:43PM 36.8331 -100.7267 317° Northwest 423 487 34,000  Level Kansas City Center
12:44PM 36.9294 -100.8383 317° Northwest 428 493 34,000  Level Kansas City Center
12:45PM 37.0139 -100.9364 313° West 428 493 34,000  Level Kansas City Center
12:46PM 37.0933 -101.0447 311° West 428 493 34,000  Level Kansas City Center
12:47PM 37.1631 -101.1444 310° West 421 484 34,000  Level Kansas City Center
12:48PM 37.2458 -101.2667 311° West 421 484 34,000  Level Kansas City Center
12:49PM 37.3231 -101.3781 310° West 416 479 34,000  Level Kansas City Center
12:50PM 37.3978 -101.4894 311° West 416 479 34,000  Level Kansas City Center
12:51PM 37.4669 -101.5900 310° West 421 484 34,000  Level Kansas City Center
12:52PM 37.5417 -101.7017 311° West 421 484 34,000  Level Kansas City Center
12:54PM 37.6758 -101.8997 309° West 424 488 34,000  Level Denver Center
12:55PM 37.7425 -102.0031 311° West 424 488 34,000  Level Denver Center
12:56PM 37.8175 -102.1114 310° West 424 488 34,000  Level Denver Center
12:57PM 37.8994 -102.2353 310° West 419 482 34,000  Level Denver Center
12:58PM 37.9722 -102.3469 310° West 419 482 34,000  Level Denver Center
12:59PM 38.0383 -102.4458 311° West 414 476 34,000  Level Denver Center
01:00PM 38.1217 -102.5678 311° West 419 482 34,000  Level Denver Center
01:01PM 38.1964 -102.6772 327° Northwest 414 476 34,000  Level Denver Center
01:02PM 38.2928 -102.7569 332° Northwest 414 476 34,000  Level Denver Center
01:03PM 38.3867 -102.8208 331° Northwest 426 490 34,000  Level Denver Center
01:04PM 38.5019 -102.9025 332° Northwest 426 490 34,000  Level Denver Center
01:05PM 38.6019 -102.9717 331° Northwest 426 490 34,000  Level Denver Center
01:06PM 38.7022 -103.0439 332° Northwest 421 484 34,000  Level Denver Center
01:07PM 38.8064 -103.1161 328° Northwest 421 484 34,000  Level Denver Center
01:08PM 38.9047 -103.1942 330° Northwest 421 484 34,000  Level Denver Center
01:09PM 39.0069 -103.2694 331° Northwest 421 484 34,000  Level Denver Center
01:10PM 39.1089 -103.3422 331° Northwest 421 484 34,000  Level Denver Center
01:11PM 39.2025 -103.4106 330° Northwest 421 484 34,000  Level Denver Center
01:12PM 39.3006 -103.4839 330° Northwest 421 484 34,000  Level Denver Center
01:13PM 39.4047 -103.5628 330° Northwest 421 484 34,000  Level Denver Center
01:14PM 39.5044 -103.6367 330° Northwest 416 479 34,000  Level Denver Center
01:15PM 39.6064 -103.7133 329° Northwest 421 484 34,000  Level Denver Center
01:16PM 39.7042 -103.7903 330° Northwest 414 476 34,000  Level Denver Center
01:17PM 39.8061 -103.8675 330° Northwest 419 482 34,000  Level Denver Center
01:18PM 39.9058 -103.9422 330° Northwest 419 482 34,000  Level Denver Center
01:19PM 40.0075 -104.0197 330° Northwest 419 482 34,000  Level Denver Center
01:20PM 40.1092 -104.0975 330° Northwest 419 482 34,000  Level Denver Center
01:21PM 40.2172 -104.1808 329° Northwest 419 482 34,000  Level Denver Center
01:22PM 40.3211 -104.2617 329° Northwest 419 482 34,000  Level Denver Center
01:23PM 40.4225 -104.3403 330° Northwest 419 482 34,000  Level Denver Center
01:24PM 40.5242 -104.4189 329° Northwest 419 482 34,000  Level Denver Center
01:26PM 40.7250 -104.5772 329° Northwest 419 482 34,000  Level Denver Center
01:27PM 40.8264 -104.6567 330° Northwest 419 482 34,000  Level Denver Center
01:28PM 40.9297 -104.7364 329° Northwest 432 497 34,000  Level Denver Center
01:29PM 41.0161 -104.8056 330° Northwest 432 497 34,000  Level Denver Center
01:30PM 41.1258 -104.8911 329° Northwest 418 481 34,000  Level Denver Center
01:31PM 41.2269 -104.9717 329° Northwest 418 481 34,000  Level Denver Center
01:32PM 41.3300 -105.0550 329° Northwest 424 488 34,000  Level Denver Center
01:33PM 41.4228 -105.1306 329° Northwest 430 495 34,000  Level Denver Center
01:34PM 41.5322 -105.2169 329° Northwest 430 495 34,000  Level Denver Center
01:35PM 41.6308 -105.2956 330° Northwest 425 489 34,000  Level Denver Center
01:36PM 41.7317 -105.3744 329° Northwest 425 489 34,000  Level Denver Center
01:37PM 41.8219 -105.4483 329° Northwest 425 489 34,000  Level Denver Center
01:38PM 41.9228 -105.5303 329° Northwest 425 489 34,000 420 Level Denver Center
01:39PM 42.0317 -105.6183 329° Northwest 420 483 34,900 780 Climbing Denver Center
01:40PM 42.1303 -105.6981 328° Northwest 420 483 35,600 540 Climbing Denver Center
01:41PM 42.2203 -105.7728 330° Northwest 420 483 36,000 180 Climbing Denver Center
01:42PM 42.3189 -105.8503 328° Northwest 414 476 36,000  Level Denver Center
01:43PM 42.4297 -105.9447 329° Northwest 414 476 36,000  Level Denver Center
01:44PM 42.5300 -106.0256 331° Northwest 414 476 36,000  Level Denver Center
01:45PM 42.6219 -106.0956 332° Northwest 414 476 36,000  Level Denver Center
01:46PM 42.7264 -106.1714 332° Northwest 420 483 36,000  Level Denver Center
01:47PM 42.8411 -106.2556 331° Northwest 425 489 36,000  Level Denver Center
01:48PM 42.9433 -106.3319 331° Northwest 420 483 36,000  Level Denver Center
01:49PM 43.0350 -106.4028 332° Northwest 426 490 36,000  Level Denver Center
01:50PM 43.1392 -106.4794 331° Northwest 426 490 36,000  Level Denver Center
01:51PM 43.2497 -106.5647 332° Northwest 419 482 36,000  Level Denver Center
01:52PM 43.3517 -106.6392 330° Northwest 419 482 36,000  Level Denver Center
01:53PM 43.4431 -106.7108 330° Northwest 419 482 36,000  Level Denver Center
01:54PM 43.5697 -106.8122 331° Northwest 417 480 36,000  Level Salt Lake Center
01:55PM 43.6819 -106.8994 330° Northwest 415 478 36,000  Level Salt Lake Center
01:56PM 43.7831 -106.9808 330° Northwest 416 479 36,000  Level Salt Lake Center
01:57PM 43.8822 -107.0597 331° Northwest 425 489 36,000  Level Salt Lake Center
01:58PM 44.0019 -107.1517 331° Northwest 437 503 36,000  Level Salt Lake Center
01:59PM 44.1017 -107.2286 331° Northwest 431 496 36,000  Level Salt Lake Center
02:00PM 44.2167 -107.3186 329° Northwest 426 490 36,000  Level Salt Lake Center
02:01PM 44.3142 -107.3992 330° Northwest 426 490 36,000  Level Salt Lake Center
02:02PM 44.4122 -107.4778 331° Northwest 425 489 36,000  Level Salt Lake Center
02:03PM 44.5272 -107.5686 331° Northwest 426 490 36,000  Level Salt Lake Center
02:04PM 44.6261 -107.6472 330° Northwest 426 490 36,000  Level Salt Lake Center
02:05PM 44.7394 -107.7383 330° Northwest 424 488 36,000  Level Salt Lake Center
02:06PM 44.8500 -107.8275 330° Northwest 422 486 36,000  Level Salt Lake Center
02:08PM 44.9458 -107.9058 330° Northwest 426 490 36,000  Level Salt Lake Center
02:09PM 45.0611 -107.9997 330° Northwest 430 495 36,000  Level Salt Lake Center
02:10PM 45.1583 -108.0800 330° Northwest 426 490 36,000  Level Salt Lake Center
02:11PM 45.2719 -108.1736 330° Northwest 424 488 36,000  Level Salt Lake Center
02:12PM 45.3697 -108.2544 330° Northwest 425 489 36,000  Level Salt Lake Center
02:13PM 45.4839 -108.3494 330° Northwest 426 490 36,000  Level Salt Lake Center
02:14PM 45.5811 -108.4306 330° Northwest 424 488 36,000  Level Salt Lake Center
02:15PM 45.6933 -108.5250 330° Northwest 420 483 36,000  Level Salt Lake Center
02:16PM 45.7914 -108.6064 326° Northwest 424 488 36,000  Level Salt Lake Center
02:17PM 45.8839 -108.6944 326° Northwest 417 480 36,000  Level Salt Lake Center
02:18PM 45.9917 -108.7997 326° Northwest 419 482 36,000  Level Salt Lake Center
02:19PM 46.0839 -108.8894 326° Northwest 418 481 36,000  Level Salt Lake Center
02:20PM 46.1931 -108.9969 326° Northwest 424 488 36,000  Level Salt Lake Center
02:21PM 46.2886 -109.0889 326° Northwest 429 494 36,000  Level Salt Lake Center
02:22PM 46.3972 -109.1969 326° Northwest 426 490 36,000  Level Salt Lake Center
02:23PM 46.4889 -109.2878 326° Northwest 420 483 36,000  Level Salt Lake Center
02:24PM 46.5975 -109.3964 324° Northwest 423 487 36,000  Level Salt Lake Center
02:25PM 46.6878 -109.4917 326° Northwest 420 483 36,000  Level Salt Lake Center
02:26PM 46.7822 -109.5853 327° Northwest 416 479 36,000 -60 Level Salt Lake Center
02:27PM 46.8775 -109.6775 325° Northwest 414 476 35,900  Descending Salt Lake Center
02:28PM 46.9717 -109.7725 325° Northwest 413 475 36,000  Climbing Salt Lake Center
02:29PM 47.0847 -109.8894 325° Northwest 415 478 35,900  Descending Salt Lake Center
02:30PM 47.1789 -109.9856 324° Northwest 415 478 36,000  Climbing Salt Lake Center
02:31PM 47.2706 -110.0831 325° Northwest 411 473 36,000  Level Salt Lake Center
02:32PM 47.3633 -110.1800 325° Northwest 411 473 36,000  Level Salt Lake Center
02:33PM 47.4564 -110.2769 325° Northwest 412 474 36,000  Level Salt Lake Center
02:34PM 47.5514 -110.3750 326° Northwest 415 478 36,000  Level Salt Lake Center
02:35PM 47.6664 -110.4917 324° Northwest 420 483 36,000  Level Salt Lake Center
02:36PM 47.7583 -110.5900 324° Northwest 416 479 36,000 -60 Level Salt Lake Center
02:37PM 47.8514 -110.6892 324° Northwest 414 476 35,900  Descending Salt Lake Center
02:39PM 47.9453 -110.7897 325° Northwest 417 480 36,000  Climbing Salt Lake Center
02:40PM 48.0403 -110.8911 324° Northwest 421 484 35,900  Descending Salt Lake Center
02:41PM 48.1511 -111.0114 325° Northwest 417 480 36,000  Climbing Salt Lake Center
02:42PM 48.2456 -111.1122 324° Northwest 419 482 36,000 -60 Level Salt Lake Center
02:43PM 48.3386 -111.2133 324° Northwest 417 480 35,900  Descending Salt Lake Center
02:44PM 48.4314 -111.3156 324° Northwest 416 479 36,000  Climbing Salt Lake Center
02:45PM 48.5253 -111.4189 324° Northwest 418 481 35,900  Descending Salt Lake Center
02:46PM 48.6397 -111.5461 324° Northwest 424 488 36,000  Climbing Salt Lake Center
02:47PM 48.7364 -111.6519 325° Northwest 428 493 35,900 -60 Descending Salt Lake Center
02:48PM 48.8325 -111.7556 329° Northwest 428 493 35,900  Level Salt Lake Center
02:49PM 48.9342 -111.8483 318° Northwest 429 494 35,900  Level Salt Lake Center
02:50PM 49.0333 -111.9833 331° Northwest 430 495 36,000  Climbing Edmonton Center
02:51PM 49.1333 -112.0667 327° Northwest 430 495 36,000  Level Edmonton Center
02:52PM 49.2333 -112.1667 323° Northwest 430 495 36,000  Level Edmonton Center
02:53PM 49.3333 -112.2833 327° Northwest 430 495 36,000  Level Edmonton Center
02:54PM 49.4333 -112.3833 335° Northwest 430 495 36,000  Level Edmonton Center
02:55PM 49.5500 -112.4667 322° Northwest 430 495 36,000  Level Edmonton Center
02:56PM 49.6333 -112.5667 331° Northwest 430 495 36,000 -480 Level Edmonton Center
02:57PM 49.7500 -112.6667 327° Northwest 440 506 35,100 -1,620 Descending Edmonton Center
02:58PM 49.8500 -112.7667 323° Northwest 430 495 32,800 -2,280 Descending Edmonton Center
02:59PM 49.9500 -112.8833 327° Northwest 430 495 30,600 -1,680 Descending Edmonton Center
03:00PM 50.0500 -112.9833 331° Northwest 430 495 29,500 -1,020 Descending Edmonton Center
03:01PM 50.1667 -113.0833 327° Northwest 430 495 28,600 -780 Descending Edmonton Center
03:02PM 50.2667 -113.1833 332° Northwest 440 506 28,000 -1,140 Descending Edmonton Center
03:03PM 50.3667 -113.2667 328° Northwest 430 495 26,400 -2,100 Descending Edmonton Center
03:04PM 50.4667 -113.3667 328° Northwest 410 472 23,800 -2,880 Descending Edmonton Center
03:05PM 50.5500 -113.4500 328° Northwest 380 437 20,700 -3,300 Descending Edmonton Center
03:06PM 50.6500 -113.5500 312° West 370 426 17,200 -3,300 Descending Edmonton Center
03:07PM 50.7167 -113.6667 294° West 350 403 14,100 -2,700 Descending Edmonton Center
03:08PM 50.7500 -113.7833 322° Northwest 350 403 11,800 -2,160 Descending Edmonton Center
03:09PM 50.8167 -113.8667 294° West 310 357 9,800 -2,040 Descending Edmonton Center
03:10PM 50.8500 -113.9833 335° Northwest 290 334 7,800 -1,860 Descending Edmonton Center
03:11PM 50.9167 -114.0333 335° Northwest 260 299 6,100 -1,740 Descending Edmonton Center